EST,Max TemperatureF,Mean TemperatureF,Min TemperatureF,Max Dew PointF,MeanDew PointF,Min DewpointF,Max Humidity, Mean Humidity, Min Humidity, Max Sea Level PressureIn, Mean Sea Level PressureIn, Min Sea Level PressureIn, Max VisibilityMiles, Mean VisibilityMiles, Min VisibilityMiles, Max Wind SpeedMPH, Mean Wind SpeedMPH, Max Gust SpeedMPH,PrecipitationIn, CloudCover, Events, WindDirDegrees
2014-1-1,14,5,-4,7,0,-8,86,71,51,30.42,30.35,30.31,10,10,5,8,3,,0.00,5,Snow,32
2014-1-2,11,4,-5,6,1,-10,85,70,56,30.32,30.25,30.19,10,10,7,13,7,23,0.00,5,Snow,11
2014-1-3,14,0,-14,4,-6,-19,84,68,57,30.39,30.27,29.99,10,10,10,17,4,26,0.00,3,,190
2014-1-4,31,22,14,28,16,3,92,72,60,29.98,29.87,29.78,10,9,4,17,13,30,0.00,4,Snow,207
2014-1-5,30,23,16,30,21,12,100,90,79,30.06,29.92,29.67,10,3,0,18,6,24,0.00,8,Snow,360
2014-1-6,15,4,-7,12,0,-15,85,73,58,29.98,29.80,29.67,10,7,0,22,11,33,0.00,5,Snow,267
2014-1-7,9,0,-10,3,-7,-15,81,71,61,30.22,30.06,29.97,10,8,3,23,10,32,0.00,4,Snow,233
2014-1-8,16,8,0,7,2,-3,86,78,67,30.49,30.33,30.22,10,10,10,13,6,16,0.00,5,Snow,231
2014-1-9,16,7,-2,12,3,-6,88,81,71,30.56,30.45,30.25,10,9,3,12,1,,0.00,6,Snow,167
2014-1-10,39,28,16,39,28,13,99,92,84,30.24,29.98,29.59,10,6,2,12,3,16,0.23,8,Rain,154
2014-1-11,40,36,32,40,35,28,100,92,80,29.59,29.41,29.26,10,8,1,17,9,24,0.02,8,Rain,234
2014-1-12,37,35,33,29,27,26,84,75,66,29.84,29.72,29.60,10,10,10,16,10,22,0.00,4,,222
2014-1-13,40,36,33,35,31,28,89,80,69,29.65,29.56,29.48,10,10,5,14,6,20,0.00,3,Rain,202
2014-1-14,36,28,21,32,26,20,99,81,64,29.75,29.67,29.62,10,9,1,18,7,24,0.00,5,Snow,197
2014-1-15,29,25,21,24,16,11,86,70,58,29.95,29.82,29.60,10,10,2,20,11,28,0.00,8,Snow,254
2014-1-16,27,22,18,26,18,12,96,80,73,29.86,29.67,29.57,10,8,2,16,11,25,0.00,8,Snow,170
2014-1-17,30,26,21,29,20,14,98,79,64,29.86,29.71,29.55,10,8,2,15,7,21,0.00,6,Snow,230
2014-1-18,24,20,16,19,16,13,86,81,73,29.87,29.84,29.77,10,8,1,10,6,,0.00,8,Snow,209
2014-1-19,30,22,13,26,20,11,89,82,77,29.77,29.54,29.44,10,10,4,23,10,39,0.00,7,Snow,235
2014-1-20,29,17,5,27,8,-6,90,68,49,30.12,29.84,29.48,10,9,2,16,4,21,0.00,7,Snow,4
2014-1-21,10,2,-6,-4,-6,-10,82,65,46,30.23,30.18,30.11,10,10,10,12,3,18,0.00,2,,352
2014-1-22,12,2,-8,8,0,-14,87,80,69,30.17,29.99,29.87,10,6,2,10,3,,0.00,7,Snow,157
2014-1-23,13,2,-8,5,-2,-13,88,73,46,30.44,30.25,29.93,10,8,2,15,3,21,0.00,3,Snow,327
2014-1-24,19,6,-8,15,3,-13,85,74,57,30.39,29.90,29.35,10,7,2,28,9,41,0.00,6,Snow,210
2014-1-25,26,14,1,24,7,-6,92,69,44,29.72,29.43,29.21,10,7,1,21,13,31,0.00,5,Snow,273
2014-1-26,20,10,0,16,5,-4,86,80,66,29.72,29.50,29.31,10,7,1,18,5,31,0.00,7,Snow,202
2014-1-27,16,6,-4,6,-6,-14,76,60,39,30.22,29.92,29.41,10,9,3,18,12,30,0.00,2,Snow,273
2014-1-28,10,3,-4,1,-4,-10,83,72,55,30.24,30.16,30.04,10,9,2,21,9,30,0.00,3,Snow,231
2014-1-29,20,11,2,7,3,-3,79,67,53,30.07,30.00,29.94,10,9,3,22,12,32,0.00,4,Snow,236
2014-1-30,28,20,13,26,12,3,88,65,50,30.02,29.82,29.64,10,9,0,24,13,34,0.00,3,Snow,197
2014-1-31,32,24,15,27,16,11,89,69,55,30.12,30.00,29.73,10,10,7,13,7,18,0.00,2,Snow,253